sensor_id;sensor_type;location;lat;lon;timestamp;pressure;altitude;pressure_sealevel;temperature;humidity
37860;BME280;23698;52.014;5.190;2023-01-24T00:01:45;103488.66;;;5.42;100.00
37860;BME280;23698;52.014;5.190;2023-01-24T00:04:32;103490.69;;;5.53;100.00
37860;BME280;23698;52.014;5.190;2023-01-24T00:07:18;103482.91;;;5.03;100.00
37860;BME280;23698;52.014;5.190;2023-01-24T00:10:07;103495.88;;;4.49;100.00
37860;BME280;23698;52.014;5.190;2023-01-24T00:12:54;103502.88;;;4.20;100.00
37860;BME280;23698;52.014;5.190;2023-01-24T00:15:41;103494.38;;;4.11;100.00
37860;BME280;23698;52.014;5.190;2023-01-24T00:18:29;103497.31;;;4.07;100.00
37860;BME280;23698;52.014;5.190;2023-01-24T00:21:19;103511.28;;;4.45;100.00
37860;BME280;23698;52.014;5.190;2023-01-24T00:24:07;103506.59;;;4.17;100.00
37860;BME280;23698;52.014;5.190;2023-01-24T00:26:53;103506.94;;;4.75;100.00
37860;BME280;23698;52.014;5.190;2023-01-24T00:29:40;103500.88;;;4.71;100.00
37860;BME280;23698;52.014;5.190;2023-01-24T00:32:27;103499.69;;;4.29;100.00
37860;BME280;23698;52.014;5.190;2023-01-24T00:35:15;103509.41;;;4.63;100.00
37860;BME280;23698;52.014;5.190;2023-01-24T00:38:01;103506.25;;;4.07;100.00
37860;BME280;23698;52.014;5.190;2023-01-24T00:40:48;103505.16;;;4.43;100.00
37860;BME280;23698;52.014;5.190;2023-01-24T00:43:34;103509.50;;;4.46;100.00
37860;BME280;23698;52.014;5.190;2023-01-24T00:46:21;103501.94;;;4.52;100.00
37860;BME280;23698;52.014;5.190;2023-01-24T00:49:08;103509.50;;;4.30;100.00
37860;BME280;23698;52.014;5.190;2023-01-24T00:51:55;103500.13;;;3.88;100.00
37860;BME280;23698;52.014;5.190;2023-01-24T00:54:42;103496.38;;;4.24;100.00
37860;BME280;23698;52.014;5.190;2023-01-24T00:57:28;103503.84;;;4.34;100.00
37860;BME280;23698;52.014;5.190;2023-01-24T01:00:15;103503.38;;;4.26;100.00
37860;BME280;23698;52.014;5.190;2023-01-24T01:03:02;103499.84;;;4.58;100.00
37860;BME280;23698;52.014;5.190;2023-01-24T01:05:49;103491.66;;;5.07;100.00
37860;BME280;23698;52.014;5.190;2023-01-24T01:08:38;103478.50;;;5.47;100.00
37860;BME280;23698;52.014;5.190;2023-01-24T01:11:24;103481.06;;;4.73;100.00
37860;BME280;23698;52.014;5.190;2023-01-24T01:14:11;103483.81;;;4.72;100.00
37860;BME280;23698;52.014;5.190;2023-01-24T01:16:57;103482.25;;;4.52;100.00
37860;BME280;23698;52.014;5.190;2023-01-24T01:19:44;103483.53;;;4.77;100.00
37860;BME280;23698;52.014;5.190;2023-01-24T01:22:31;103483.25;;;4.51;100.00
37860;BME280;23698;52.014;5.190;2023-01-24T01:25:18;103482.44;;;4.49;100.00
37860;BME280;23698;52.014;5.190;2023-01-24T01:28:05;103471.34;;;5.01;100.00
37860;BME280;23698;52.014;5.190;2023-01-24T01:30:52;103471.19;;;4.42;100.00
37860;BME280;23698;52.014;5.190;2023-01-24T01:33:39;103477.25;;;4.30;100.00
37860;BME280;23698;52.014;5.190;2023-01-24T01:36:26;103497.25;;;4.40;100.00
37860;BME280;23698;52.014;5.190;2023-01-24T01:39:12;103488.25;;;4.41;100.00
37860;BME280;23698;52.014;5.190;2023-01-24T01:42:00;103492.84;;;4.23;100.00
37860;BME280;23698;52.014;5.190;2023-01-24T01:44:47;103489.63;;;4.48;100.00
37860;BME280;23698;52.014;5.190;2023-01-24T01:47:35;103485.22;;;4.47;100.00
37860;BME280;23698;52.014;5.190;2023-01-24T01:50:26;103481.41;;;4.67;100.00
37860;BME280;23698;52.014;5.190;2023-01-24T01:53:17;103474.91;;;4.24;100.00
37860;BME280;23698;52.014;5.190;2023-01-24T01:56:06;103484.50;;;4.28;100.00
37860;BME280;23698;52.014;5.190;2023-01-24T01:59:01;103482.16;;;4.69;100.00
37860;BME280;23698;52.014;5.190;2023-01-24T02:01:50;103473.56;;;4.95;100.00
37860;BME280;23698;52.014;5.190;2023-01-24T02:04:41;103470.91;;;5.09;100.00
37860;BME280;23698;52.014;5.190;2023-01-24T02:07:35;103467.59;;;4.89;100.00
37860;BME280;23698;52.014;5.190;2023-01-24T02:10:26;103477.38;;;4.75;100.00
37860;BME280;23698;52.014;5.190;2023-01-24T02:13:35;103468.84;;;4.36;100.00
37860;BME280;23698;52.014;5.190;2023-01-24T02:16:26;103467.78;;;4.23;100.00
37860;BME280;23698;52.014;5.190;2023-01-24T02:19:20;103472.84;;;4.29;100.00
37860;BME280;23698;52.014;5.190;2023-01-24T02:22:15;103477.88;;;4.51;100.00
37860;BME280;23698;52.014;5.190;2023-01-24T02:25:09;103476.38;;;4.77;100.00
37860;BME280;23698;52.014;5.190;2023-01-24T02:28:02;103469.63;;;4.38;100.00
37860;BME280;23698;52.014;5.190;2023-01-24T02:30:50;103476.09;;;4.66;100.00
37860;BME280;23698;52.014;5.190;2023-01-24T02:33:37;103464.53;;;4.49;100.00
37860;BME280;23698;52.014;5.190;2023-01-24T02:36:27;103470.50;;;4.39;100.00
37860;BME280;23698;52.014;5.190;2023-01-24T02:39:18;103466.69;;;4.43;100.00
37860;BME280;23698;52.014;5.190;2023-01-24T02:42:10;103463.66;;;4.65;100.00
37860;BME280;23698;52.014;5.190;2023-01-24T02:45:05;103464.03;;;5.19;100.00
37860;BME280;23698;52.014;5.190;2023-01-24T02:47:56;103448.59;;;5.37;100.00
37860;BME280;23698;52.014;5.190;2023-01-24T02:50:42;103452.72;;;5.57;100.00
37860;BME280;23698;52.014;5.190;2023-01-24T02:53:46;103454.19;;;5.04;100.00
37860;BME280;23698;52.014;5.190;2023-01-24T02:56:32;103460.34;;;4.28;100.00
37860;BME280;23698;52.014;5.190;2023-01-24T02:59:37;103460.94;;;4.17;100.00
37860;BME280;23698;52.014;5.190;2023-01-24T03:02:25;103458.94;;;4.52;100.00
37860;BME280;23698;52.014;5.190;2023-01-24T03:05:13;103462.66;;;4.66;100.00
37860;BME280;23698;52.014;5.190;2023-01-24T03:08:00;103461.72;;;4.35;100.00
37860;BME280;23698;52.014;5.190;2023-01-24T03:10:47;103463.63;;;4.33;100.00
37860;BME280;23698;52.014;5.190;2023-01-24T03:13:35;103463.13;;;4.58;100.00
37860;BME280;23698;52.014;5.190;2023-01-24T03:16:40;103462.94;;;4.29;100.00
37860;BME280;23698;52.014;5.190;2023-01-24T03:19:46;103470.34;;;4.88;100.00
37860;BME280;23698;52.014;5.190;2023-01-24T03:22:51;103456.63;;;4.14;100.00
37860;BME280;23698;52.014;5.190;2023-01-24T03:25:56;103456.72;;;4.45;100.00
37860;BME280;23698;52.014;5.190;2023-01-24T03:29:02;103454.72;;;4.48;100.00
37860;BME280;23698;52.014;5.190;2023-01-24T03:32:07;103451.59;;;4.40;100.00
37860;BME280;23698;52.014;5.190;2023-01-24T03:35:13;103457.56;;;4.45;100.00
37860;BME280;23698;52.014;5.190;2023-01-24T03:38:00;103451.31;;;4.61;100.00
37860;BME280;23698;52.014;5.190;2023-01-24T03:41:05;103440.97;;;4.85;100.00
37860;BME280;23698;52.014;5.190;2023-01-24T03:43:53;103454.63;;;4.96;100.00
37860;BME280;23698;52.014;5.190;2023-01-24T03:46:39;103454.19;;;5.04;100.00
37860;BME280;23698;52.014;5.190;2023-01-24T03:49:28;103441.09;;;4.67;100.00
37860;BME280;23698;52.014;5.190;2023-01-24T03:52:34;103454.78;;;4.47;100.00
37860;BME280;23698;52.014;5.190;2023-01-24T03:55:23;103467.44;;;4.45;100.00
37860;BME280;23698;52.014;5.190;2023-01-24T03:58:11;103471.81;;;4.47;100.00
37860;BME280;23698;52.014;5.190;2023-01-24T04:00:58;103476.03;;;4.04;100.00
37860;BME280;23698;52.014;5.190;2023-01-24T04:04:07;103482.53;;;3.82;100.00
37860;BME280;23698;52.014;5.190;2023-01-24T04:06:54;103480.97;;;3.78;100.00
37860;BME280;23698;52.014;5.190;2023-01-24T04:09:42;103484.31;;;3.66;100.00
37860;BME280;23698;52.014;5.190;2023-01-24T04:12:29;103492.53;;;3.63;100.00
37860;BME280;23698;52.014;5.190;2023-01-24T04:15:19;103492.06;;;3.88;100.00
37860;BME280;23698;52.014;5.190;2023-01-24T04:18:12;103499.09;;;3.90;100.00
37860;BME280;23698;52.014;5.190;2023-01-24T04:21:00;103501.09;;;3.87;100.00
37860;BME280;23698;52.014;5.190;2023-01-24T04:23:47;103492.63;;;3.44;100.00
37860;BME280;23698;52.014;5.190;2023-01-24T04:26:36;103496.25;;;3.60;100.00
37860;BME280;23698;52.014;5.190;2023-01-24T04:29:25;103496.50;;;3.55;100.00
37860;BME280;23698;52.014;5.190;2023-01-24T04:32:15;103507.06;;;3.58;100.00
37860;BME280;23698;52.014;5.190;2023-01-24T04:35:15;103501.91;;;3.71;100.00
37860;BME280;23698;52.014;5.190;2023-01-24T04:38:08;103510.41;;;4.13;100.00
37860;BME280;23698;52.014;5.190;2023-01-24T04:41:15;103506.03;;;3.94;100.00
37860;BME280;23698;52.014;5.190;2023-01-24T04:44:04;103506.69;;;4.15;100.00
37860;BME280;23698;52.014;5.190;2023-01-24T04:46:50;103515.63;;;4.16;100.00
37860;BME280;23698;52.014;5.190;2023-01-24T04:49:37;103508.28;;;3.86;100.00
37860;BME280;23698;52.014;5.190;2023-01-24T04:52:28;103519.66;;;4.07;100.00
37860;BME280;23698;52.014;5.190;2023-01-24T04:55:22;103515.22;;;3.90;100.00
37860;BME280;23698;52.014;5.190;2023-01-24T04:58:10;103517.66;;;3.95;100.00
37860;BME280;23698;52.014;5.190;2023-01-24T05:00:58;103525.28;;;3.69;100.00
37860;BME280;23698;52.014;5.190;2023-01-24T05:03:48;103531.34;;;3.73;100.00
37860;BME280;23698;52.014;5.190;2023-01-24T05:06:36;103531.09;;;3.77;100.00
37860;BME280;23698;52.014;5.190;2023-01-24T05:09:23;103528.25;;;3.63;100.00
37860;BME280;23698;52.014;5.190;2023-01-24T05:12:19;103535.38;;;3.29;100.00
37860;BME280;23698;52.014;5.190;2023-01-24T05:15:06;103542.31;;;3.51;100.00
37860;BME280;23698;52.014;5.190;2023-01-24T05:17:54;103546.97;;;3.65;100.00
37860;BME280;23698;52.014;5.190;2023-01-24T05:20:43;103546.75;;;3.69;100.00
37860;BME280;23698;52.014;5.190;2023-01-24T05:23:30;103545.19;;;3.99;100.00
37860;BME280;23698;52.014;5.190;2023-01-24T05:26:17;103537.41;;;3.76;100.00
37860;BME280;23698;52.014;5.190;2023-01-24T05:29:05;103545.75;;;3.88;100.00
37860;BME280;23698;52.014;5.190;2023-01-24T05:31:52;103543.97;;;3.71;100.00
37860;BME280;23698;52.014;5.190;2023-01-24T05:34:41;103546.41;;;4.09;100.00
37860;BME280;23698;52.014;5.190;2023-01-24T05:37:28;103542.50;;;4.48;100.00
37860;BME280;23698;52.014;5.190;2023-01-24T05:40:16;103536.97;;;4.18;100.00
37860;BME280;23698;52.014;5.190;2023-01-24T05:43:05;103545.19;;;3.99;100.00
37860;BME280;23698;52.014;5.190;2023-01-24T05:45:57;103539.03;;;3.79;100.00
37860;BME280;23698;52.014;5.190;2023-01-24T05:48:45;103545.34;;;4.29;100.00
37860;BME280;23698;52.014;5.190;2023-01-24T05:51:33;103538.28;;;3.77;100.00
37860;BME280;23698;52.014;5.190;2023-01-24T05:54:21;103547.38;;;3.39;100.00
37860;BME280;23698;52.014;5.190;2023-01-24T05:57:14;103564.47;;;3.37;100.00
37860;BME280;23698;52.014;5.190;2023-01-24T06:00:21;103561.41;;;3.27;100.00
37860;BME280;23698;52.014;5.190;2023-01-24T06:03:30;103568.66;;;3.25;100.00
37860;BME280;23698;52.014;5.190;2023-01-24T06:06:18;103577.16;;;3.33;100.00
37860;BME280;23698;52.014;5.190;2023-01-24T06:09:07;103580.19;;;3.27;100.00
37860;BME280;23698;52.014;5.190;2023-01-24T06:11:54;103590.13;;;3.25;100.00
37860;BME280;23698;52.014;5.190;2023-01-24T06:14:41;103594.56;;;2.88;100.00
37860;BME280;23698;52.014;5.190;2023-01-24T06:17:28;103603.19;;;3.31;100.00
37860;BME280;23698;52.014;5.190;2023-01-24T06:20:16;103601.28;;;2.97;100.00
37860;BME280;23698;52.014;5.190;2023-01-24T06:23:05;103606.88;;;3.11;100.00
37860;BME280;23698;52.014;5.190;2023-01-24T06:25:59;103621.78;;;3.17;100.00
37860;BME280;23698;52.014;5.190;2023-01-24T06:28:47;103621.59;;;3.39;100.00
37860;BME280;23698;52.014;5.190;2023-01-24T06:31:38;103624.75;;;3.47;100.00
37860;BME280;23698;52.014;5.190;2023-01-24T06:34:39;103625.31;;;4.06;100.00
37860;BME280;23698;52.014;5.190;2023-01-24T06:37:31;103627.34;;;3.31;100.00
37860;BME280;23698;52.014;5.190;2023-01-24T06:40:22;103626.69;;;3.26;100.00
37860;BME280;23698;52.014;5.190;2023-01-24T06:43:11;103630.53;;;3.74;100.00
37860;BME280;23698;52.014;5.190;2023-01-24T06:45:58;103631.47;;;3.56;100.00
37860;BME280;23698;52.014;5.190;2023-01-24T06:48:45;103635.50;;;3.65;100.00
37860;BME280;23698;52.014;5.190;2023-01-24T06:51:31;103638.78;;;3.35;100.00
37860;BME280;23698;52.014;5.190;2023-01-24T06:54:18;103636.88;;;3.37;100.00
37860;BME280;23698;52.014;5.190;2023-01-24T06:57:05;103637.22;;;3.12;100.00
37860;BME280;23698;52.014;5.190;2023-01-24T06:59:53;103645.09;;;3.34;100.00
37860;BME280;23698;52.014;5.190;2023-01-24T07:02:39;103648.00;;;3.29;100.00
37860;BME280;23698;52.014;5.190;2023-01-24T07:05:26;103651.53;;;3.30;100.00
37860;BME280;23698;52.014;5.190;2023-01-24T07:08:12;103646.38;;;3.08;100.00
37860;BME280;23698;52.014;5.190;2023-01-24T07:11:04;103653.50;;;3.26;100.00
37860;BME280;23698;52.014;5.190;2023-01-24T07:13:51;103648.34;;;3.58;100.00
37860;BME280;23698;52.014;5.190;2023-01-24T07:16:39;103644.22;;;3.14;100.00
37860;BME280;23698;52.014;5.190;2023-01-24T07:19:26;103644.44;;;3.29;100.00
37860;BME280;23698;52.014;5.190;2023-01-24T07:22:13;103660.25;;;3.52;100.00
37860;BME280;23698;52.014;5.190;2023-01-24T07:25:01;103657.91;;;3.46;100.00
37860;BME280;23698;52.014;5.190;2023-01-24T07:27:48;103653.63;;;3.59;100.00
37860;BME280;23698;52.014;5.190;2023-01-24T07:30:35;103649.47;;;3.54;100.00
37860;BME280;23698;52.014;5.190;2023-01-24T07:33:23;103657.97;;;3.45;100.00
37860;BME280;23698;52.014;5.190;2023-01-24T07:36:11;103659.38;;;3.34;100.00
37860;BME280;23698;52.014;5.190;2023-01-24T07:38:58;103665.94;;;3.46;100.00
37860;BME280;23698;52.014;5.190;2023-01-24T07:41:45;103667.38;;;3.53;100.00
37860;BME280;23698;52.014;5.190;2023-01-24T07:44:31;103668.91;;;3.40;100.00
37860;BME280;23698;52.014;5.190;2023-01-24T07:47:18;103663.44;;;3.24;100.00
37860;BME280;23698;52.014;5.190;2023-01-24T07:50:08;103671.88;;;3.70;100.00
37860;BME280;23698;52.014;5.190;2023-01-24T07:52:55;103664.16;;;3.64;100.00
37860;BME280;23698;52.014;5.190;2023-01-24T07:55:42;103666.22;;;3.40;100.00
37860;BME280;23698;52.014;5.190;2023-01-24T07:58:45;103662.81;;;3.90;100.00
37860;BME280;23698;52.014;5.190;2023-01-24T08:01:32;103659.56;;;5.33;100.00
37860;BME280;23698;52.014;5.190;2023-01-24T08:04:19;103612.41;;;6.60;100.00
37860;BME280;23698;52.014;5.190;2023-01-24T08:07:07;103592.34;;;4.69;100.00
37860;BME280;23698;52.014;5.190;2023-01-24T08:10:03;103595.69;;;4.41;100.00
37860;BME280;23698;52.014;5.190;2023-01-24T08:12:50;103596.06;;;4.18;100.00
37860;BME280;23698;52.014;5.190;2023-01-24T08:15:37;103601.88;;;4.59;100.00
37860;BME280;23698;52.014;5.190;2023-01-24T08:18:23;103598.91;;;3.81;100.00
37860;BME280;23698;52.014;5.190;2023-01-24T08:21:10;103604.25;;;3.99;100.00
37860;BME280;23698;52.014;5.190;2023-01-24T08:24:00;103613.63;;;4.07;100.00
37860;BME280;23698;52.014;5.190;2023-01-24T08:26:47;103611.25;;;4.01;100.00
37860;BME280;23698;52.014;5.190;2023-01-24T08:29:36;103625.25;;;3.90;100.00
37860;BME280;23698;52.014;5.190;2023-01-24T08:32:22;103620.22;;;4.18;100.00
37860;BME280;23698;52.014;5.190;2023-01-24T08:35:09;103617.38;;;4.21;100.00
37860;BME280;23698;52.014;5.190;2023-01-24T08:37:56;103618.75;;;4.12;100.00
37860;BME280;23698;52.014;5.190;2023-01-24T08:40:44;103625.09;;;4.44;100.00
37860;BME280;23698;52.014;5.190;2023-01-24T08:43:35;103628.47;;;4.14;100.00
37860;BME280;23698;52.014;5.190;2023-01-24T08:46:22;103634.94;;;4.44;100.00
37860;BME280;23698;52.014;5.190;2023-01-24T08:49:09;103633.88;;;4.80;100.00
37860;BME280;23698;52.014;5.190;2023-01-24T08:51:56;103629.59;;;4.26;100.00
37860;BME280;23698;52.014;5.190;2023-01-24T08:54:45;103626.69;;;4.31;100.00
37860;BME280;23698;52.014;5.190;2023-01-24T08:57:33;103637.28;;;3.29;100.00
37860;BME280;23698;52.014;5.190;2023-01-24T09:00:19;103644.69;;;3.05;100.00
37860;BME280;23698;52.014;5.190;2023-01-24T09:03:06;103668.09;;;2.82;100.00
37860;BME280;23698;52.014;5.190;2023-01-24T09:05:55;103680.84;;;3.15;100.00
37860;BME280;23698;52.014;5.190;2023-01-24T09:08:42;103697.00;;;3.14;100.00
37860;BME280;23698;52.014;5.190;2023-01-24T09:11:28;103702.56;;;2.71;100.00
37860;BME280;23698;52.014;5.190;2023-01-24T09:14:16;103714.84;;;2.75;100.00
37860;BME280;23698;52.014;5.190;2023-01-24T09:17:03;103720.34;;;2.72;100.00
37860;BME280;23698;52.014;5.190;2023-01-24T09:19:50;103739.91;;;2.74;100.00
37860;BME280;23698;52.014;5.190;2023-01-24T09:22:36;103759.06;;;2.65;100.00
37860;BME280;23698;52.014;5.190;2023-01-24T09:25:23;103768.25;;;2.59;100.00
37860;BME280;23698;52.014;5.190;2023-01-24T09:28:10;103780.78;;;2.59;100.00
37860;BME280;23698;52.014;5.190;2023-01-24T09:30:58;103783.13;;;2.67;100.00
37860;BME280;23698;52.014;5.190;2023-01-24T09:33:45;103795.75;;;2.83;100.00
37860;BME280;23698;52.014;5.190;2023-01-24T09:36:47;103805.34;;;2.89;100.00
37860;BME280;23698;52.014;5.190;2023-01-24T09:39:34;103812.88;;;3.00;100.00
37860;BME280;23698;52.014;5.190;2023-01-24T09:42:27;103812.38;;;2.71;100.00
37860;BME280;23698;52.014;5.190;2023-01-24T09:45:22;103816.53;;;2.78;100.00
37860;BME280;23698;52.014;5.190;2023-01-24T09:48:13;103838.81;;;2.58;100.00
37860;BME280;23698;52.014;5.190;2023-01-24T09:51:06;103844.06;;;2.61;100.00
37860;BME280;23698;52.014;5.190;2023-01-24T09:53:59;103851.94;;;2.44;100.00
37860;BME280;23698;52.014;5.190;2023-01-24T09:56:47;103851.09;;;2.21;100.00
37860;BME280;23698;52.014;5.190;2023-01-24T09:59:38;103880.03;;;2.34;100.00
37860;BME280;23698;52.014;5.190;2023-01-24T10:02:26;103880.63;;;2.83;100.00
37860;BME280;23698;52.014;5.190;2023-01-24T10:05:16;103885.19;;;2.60;100.00
37860;BME280;23698;52.014;5.190;2023-01-24T10:08:11;103873.28;;;2.45;100.00
37860;BME280;23698;52.014;5.190;2023-01-24T10:11:08;103873.81;;;2.11;100.00
37860;BME280;23698;52.014;5.190;2023-01-24T10:14:16;103880.78;;;2.15;100.00
37860;BME280;23698;52.014;5.190;2023-01-24T10:17:47;103902.69;;;2.47;100.00
37860;BME280;23698;52.014;5.190;2023-01-24T10:20:52;103898.97;;;2.29;100.00
37860;BME280;23698;52.014;5.190;2023-01-24T10:23:43;103894.22;;;2.36;100.00
37860;BME280;23698;52.014;5.190;2023-01-24T10:26:37;103903.00;;;2.39;100.00
37860;BME280;23698;52.014;5.190;2023-01-24T10:29:30;103911.59;;;2.48;100.00
37860;BME280;23698;52.014;5.190;2023-01-24T10:32:29;103917.47;;;2.78;100.00
37860;BME280;23698;52.014;5.190;2023-01-24T10:35:19;103909.19;;;2.41;100.00
37860;BME280;23698;52.014;5.190;2023-01-24T10:38:14;103912.94;;;2.58;100.00
37860;BME280;23698;52.014;5.190;2023-01-24T10:41:18;103906.16;;;2.49;100.00
37860;BME280;23698;52.014;5.190;2023-01-24T10:44:13;103904.84;;;2.59;100.00
37860;BME280;23698;52.014;5.190;2023-01-24T10:47:20;103902.19;;;2.37;100.00
37860;BME280;23698;52.014;5.190;2023-01-24T10:50:12;103901.09;;;2.63;100.00
37860;BME280;23698;52.014;5.190;2023-01-24T10:53:13;103905.78;;;2.58;100.00
37860;BME280;23698;52.014;5.190;2023-01-24T10:56:13;103904.50;;;2.47;100.00
37860;BME280;23698;52.014;5.190;2023-01-24T10:59:03;103902.63;;;2.49;100.00
37860;BME280;23698;52.014;5.190;2023-01-24T11:01:59;103897.63;;;2.39;100.00
37860;BME280;23698;52.014;5.190;2023-01-24T11:04:46;103889.41;;;2.44;100.00
37860;BME280;23698;52.014;5.190;2023-01-24T11:07:34;103901.19;;;2.40;100.00
37860;BME280;23698;52.014;5.190;2023-01-24T11:10:27;103903.44;;;2.29;100.00
37860;BME280;23698;52.014;5.190;2023-01-24T11:13:25;103917.22;;;2.62;100.00
37860;BME280;23698;52.014;5.190;2023-01-24T11:16:20;103903.13;;;2.14;100.00
37860;BME280;23698;52.014;5.190;2023-01-24T11:19:21;103904.63;;;2.43;100.00
37860;BME280;23698;52.014;5.190;2023-01-24T11:22:19;103903.25;;;2.55;100.00
37860;BME280;23698;52.014;5.190;2023-01-24T11:25:13;103888.19;;;2.31;100.00
37860;BME280;23698;52.014;5.190;2023-01-24T11:28:01;103888.94;;;2.34;100.00
37860;BME280;23698;52.014;5.190;2023-01-24T11:30:48;103886.22;;;2.56;100.00
37860;BME280;23698;52.014;5.190;2023-01-24T11:33:50;103884.63;;;2.52;100.00
37860;BME280;23698;52.014;5.190;2023-01-24T11:36:51;103868.91;;;2.65;100.00
37860;BME280;23698;52.014;5.190;2023-01-24T11:39:46;103863.44;;;2.46;100.00
37860;BME280;23698;52.014;5.190;2023-01-24T11:42:41;103850.69;;;2.73;100.00
37860;BME280;23698;52.014;5.190;2023-01-24T11:45:43;103837.28;;;2.73;100.00
37860;BME280;23698;52.014;5.190;2023-01-24T11:48:39;103824.94;;;2.90;100.00
37860;BME280;23698;52.014;5.190;2023-01-24T11:51:42;103807.63;;;2.78;100.00
37860;BME280;23698;52.014;5.190;2023-01-24T11:54:43;103805.75;;;2.80;100.00
37860;BME280;23698;52.014;5.190;2023-01-24T11:57:39;103790.94;;;3.11;100.00
37860;BME280;23698;52.014;5.190;2023-01-24T12:00:35;103788.16;;;3.33;100.00
37860;BME280;23698;52.014;5.190;2023-01-24T12:03:41;103767.41;;;3.17;100.00
37860;BME280;23698;52.014;5.190;2023-01-24T12:06:39;103746.81;;;3.18;100.00
37860;BME280;23698;52.014;5.190;2023-01-24T12:09:33;103734.44;;;3.15;100.00
37860;BME280;23698;52.014;5.190;2023-01-24T12:12:29;103718.22;;;3.37;100.00
37860;BME280;23698;52.014;5.190;2023-01-24T12:15:41;103721.16;;;3.50;100.00
37860;BME280;23698;52.014;5.190;2023-01-24T12:18:42;103700.25;;;3.39;100.00
37860;BME280;23698;52.014;5.190;2023-01-24T12:21:32;103702.47;;;3.30;100.00
37860;BME280;23698;52.014;5.190;2023-01-24T12:24:21;103695.66;;;3.42;100.00
37860;BME280;23698;52.014;5.190;2023-01-24T12:27:13;103693.38;;;3.34;100.00
37860;BME280;23698;52.014;5.190;2023-01-24T12:30:05;103695.09;;;3.16;100.00
37860;BME280;23698;52.014;5.190;2023-01-24T12:33:00;103695.97;;;2.78;100.00
37860;BME280;23698;52.014;5.190;2023-01-24T12:35:51;103695.75;;;2.64;100.00
37860;BME280;23698;52.014;5.190;2023-01-24T12:38:44;103700.53;;;2.76;100.00
37860;BME280;23698;52.014;5.190;2023-01-24T12:41:33;103688.47;;;2.87;100.00
37860;BME280;23698;52.014;5.190;2023-01-24T12:44:25;103683.44;;;2.79;100.00
37860;BME280;23698;52.014;5.190;2023-01-24T12:47:32;103677.88;;;3.02;100.00
37860;BME280;23698;52.014;5.190;2023-01-24T12:50:25;103674.00;;;3.46;100.00
37860;BME280;23698;52.014;5.190;2023-01-24T12:53:19;103663.81;;;3.16;100.00
37860;BME280;23698;52.014;5.190;2023-01-24T12:56:12;103650.81;;;3.26;100.00
37860;BME280;23698;52.014;5.190;2023-01-24T12:59:01;103648.41;;;2.83;100.00
37860;BME280;23698;52.014;5.190;2023-01-24T13:05:23;103645.47;;;2.88;100.00
37860;BME280;23698;52.014;5.190;2023-01-24T13:08:23;103641.66;;;3.13;100.00
37860;BME280;23698;52.014;5.190;2023-01-24T13:11:20;103633.63;;;2.75;100.00
37860;BME280;23698;52.014;5.190;2023-01-24T13:14:13;103635.94;;;3.01;100.00
37860;BME280;23698;52.014;5.190;2023-01-24T13:17:19;103637.28;;;3.10;100.00
37860;BME280;23698;52.014;5.190;2023-01-24T13:20:28;103630.00;;;2.76;100.00
37860;BME280;23698;52.014;5.190;2023-01-24T13:23:46;103625.72;;;3.10;100.00
37860;BME280;23698;52.014;5.190;2023-01-24T13:26:53;103622.31;;;3.06;100.00
37860;BME280;23698;52.014;5.190;2023-01-24T13:29:52;103622.59;;;2.81;100.00
37860;BME280;23698;52.014;5.190;2023-01-24T13:32:41;103625.88;;;2.88;100.00
37860;BME280;23698;52.014;5.190;2023-01-24T13:35:30;103621.03;;;2.77;100.00
37860;BME280;23698;52.014;5.190;2023-01-24T13:38:22;103631.66;;;3.16;100.00
37860;BME280;23698;52.014;5.190;2023-01-24T13:41:14;103628.66;;;3.22;100.00
37860;BME280;23698;52.014;5.190;2023-01-24T13:44:02;103625.38;;;3.35;100.00
37860;BME280;23698;52.014;5.190;2023-01-24T13:47:03;103628.19;;;3.32;100.00
37860;BME280;23698;52.014;5.190;2023-01-24T13:50:10;103624.63;;;2.95;100.00
37860;BME280;23698;52.014;5.190;2023-01-24T13:53:00;103637.09;;;2.96;100.00
37860;BME280;23698;52.014;5.190;2023-01-24T13:56:00;103630.13;;;3.11;100.00
37860;BME280;23698;52.014;5.190;2023-01-24T13:58:51;103628.47;;;2.89;100.00
37860;BME280;23698;52.014;5.190;2023-01-24T14:01:44;103642.06;;;3.03;100.00
37860;BME280;23698;52.014;5.190;2023-01-24T14:04:40;103637.81;;;2.99;100.00
37860;BME280;23698;52.014;5.190;2023-01-24T14:07:30;103635.53;;;3.09;100.00
37860;BME280;23698;52.014;5.190;2023-01-24T14:10:18;103636.84;;;3.00;100.00
37860;BME280;23698;52.014;5.190;2023-01-24T14:13:05;103632.00;;;3.09;100.00
37860;BME280;23698;52.014;5.190;2023-01-24T14:16:13;103634.75;;;3.07;100.00
37860;BME280;23698;52.014;5.190;2023-01-24T14:19:21;103624.63;;;2.95;100.00
37860;BME280;23698;52.014;5.190;2023-01-24T14:22:18;103628.28;;;2.94;100.00
37860;BME280;23698;52.014;5.190;2023-01-24T14:25:25;103624.63;;;3.14;100.00
37860;BME280;23698;52.014;5.190;2023-01-24T14:28:28;103631.66;;;3.16;100.00
37860;BME280;23698;52.014;5.190;2023-01-24T14:31:21;103621.75;;;2.99;100.00
37860;BME280;23698;52.014;5.190;2023-01-24T14:34:13;103623.31;;;2.84;100.00
37860;BME280;23698;52.014;5.190;2023-01-24T14:37:08;103627.97;;;3.00;100.00
37860;BME280;23698;52.014;5.190;2023-01-24T14:40:08;103628.53;;;2.88;100.00
37860;BME280;23698;52.014;5.190;2023-01-24T14:42:59;103626.81;;;2.87;100.00
37860;BME280;23698;52.014;5.190;2023-01-24T14:45:47;103621.28;;;2.71;100.00
37860;BME280;23698;52.014;5.190;2023-01-24T14:48:34;103627.16;;;2.60;100.00
37860;BME280;23698;52.014;5.190;2023-01-24T14:51:23;103634.38;;;2.39;100.00
37860;BME280;23698;52.014;5.190;2023-01-24T14:54:18;103632.59;;;2.77;100.00
37860;BME280;23698;52.014;5.190;2023-01-24T14:57:19;103640.50;;;2.80;100.00
37860;BME280;23698;52.014;5.190;2023-01-24T15:00:15;103637.44;;;2.88;100.00
37860;BME280;23698;52.014;5.190;2023-01-24T15:03:03;103634.50;;;2.94;100.00